createdAt,value
2022-08-19T00:00:44.630Z,58.82
2022-08-19T00:03:29.923Z,59.06
2022-08-19T00:06:15.894Z,58.89
2022-08-19T00:09:06.687Z,58.99
2022-08-19T00:11:53.714Z,58.72
2022-08-19T00:14:40.000Z,58.53
2022-08-19T00:17:25.430Z,58.37
2022-08-19T00:20:15.313Z,58.58
2022-08-19T00:23:00.515Z,58.18
2022-08-19T00:25:48.838Z,58.06
2022-08-19T00:28:35.141Z,57.83
2022-08-19T00:31:22.470Z,58.10
2022-08-19T00:34:08.178Z,57.72
2022-08-19T00:36:53.402Z,58.02
2022-08-19T00:39:39.027Z,58.33
2022-08-19T00:42:24.260Z,58.15
2022-08-19T00:45:13.749Z,58.52
2022-08-19T00:47:59.171Z,58.17
2022-08-19T00:50:51.712Z,58.33
2022-08-19T00:53:37.819Z,58.38
2022-08-19T00:56:23.839Z,58.12
2022-08-19T00:59:09.812Z,58.34
2022-08-19T01:01:55.337Z,58.00
2022-08-19T01:04:40.629Z,58.07
2022-08-19T01:07:28.687Z,58.04
2022-08-19T01:10:24.957Z,58.83
2022-08-19T01:13:11.555Z,58.45
2022-08-19T01:16:01.748Z,58.72
2022-08-19T01:18:47.542Z,57.89
2022-08-19T01:21:38.653Z,58.66
2022-08-19T01:24:24.244Z,58.07
2022-08-19T01:27:10.813Z,58.63
2022-08-19T01:29:56.280Z,58.50
2022-08-19T01:32:42.458Z,58.76
2022-08-19T01:35:31.841Z,59.49
2022-08-19T01:38:26.671Z,58.97
2022-08-19T01:41:12.908Z,58.44
2022-08-19T01:44:17.495Z,58.19
2022-08-19T01:47:04.069Z,58.14
2022-08-19T01:49:49.189Z,57.93
2022-08-19T01:52:36.929Z,58.13
2022-08-19T01:55:23.168Z,57.74
2022-08-19T01:58:20.211Z,58.84
2022-08-19T02:01:06.948Z,57.58
2022-08-19T02:03:52.458Z,58.03
2022-08-19T02:06:42.552Z,57.89
2022-08-19T02:09:28.010Z,57.86
2022-08-19T02:12:13.204Z,57.62
2022-08-19T02:15:00.151Z,57.73
2022-08-19T02:17:45.899Z,57.54
2022-08-19T02:20:31.342Z,57.30
2022-08-19T02:23:17.947Z,57.70
2022-08-19T02:26:03.346Z,57.55
2022-08-19T02:28:48.953Z,57.74
2022-08-19T02:31:33.905Z,57.50
2022-08-19T02:34:19.356Z,57.23
2022-08-19T02:37:04.896Z,57.24
2022-08-19T02:39:50.191Z,57.21
2022-08-19T02:42:35.949Z,57.07
2022-08-19T02:45:22.186Z,57.24
2022-08-19T02:48:21.191Z,57.55
2022-08-19T02:51:07.282Z,57.34
2022-08-19T02:53:52.709Z,57.35
2022-08-19T02:56:39.969Z,57.42
2022-08-19T02:59:25.544Z,57.50
2022-08-19T03:02:10.605Z,57.30
2022-08-19T03:04:55.771Z,57.79
2022-08-19T03:07:40.971Z,57.81
2022-08-19T03:10:26.211Z,57.41
2022-08-19T03:13:16.418Z,57.82
2022-08-19T03:16:05.775Z,58.17
2022-08-19T03:18:52.682Z,57.61
2022-08-19T03:21:38.275Z,58.16
2022-08-19T03:24:23.611Z,57.96
2022-08-19T03:27:09.062Z,58.44
2022-08-19T03:29:54.553Z,58.38
2022-08-19T03:32:45.290Z,58.46
2022-08-19T03:35:30.527Z,58.33
2022-08-19T03:38:16.143Z,58.48
2022-08-19T03:41:06.323Z,58.97
2022-08-19T03:43:53.076Z,58.06
2022-08-19T03:46:38.215Z,58.44
2022-08-19T03:49:30.517Z,58.30
2022-08-19T03:52:15.967Z,58.27
2022-08-19T03:55:01.556Z,57.96
2022-08-19T03:57:47.135Z,57.84
2022-08-19T04:00:32.409Z,57.77
2022-08-19T04:03:18.010Z,57.55
2022-08-19T04:06:18.298Z,57.84
2022-08-19T04:09:06.202Z,58.17
2022-08-19T04:11:54.178Z,57.94
2022-08-19T04:14:39.897Z,57.87
2022-08-19T04:17:25.540Z,57.84
2022-08-19T04:20:11.389Z,57.87
2022-08-19T04:22:57.807Z,57.66
2022-08-19T04:25:45.462Z,57.84
2022-08-19T04:28:30.667Z,57.69
2022-08-19T04:31:22.130Z,57.61
2022-08-19T04:34:09.791Z,57.82
2022-08-19T04:36:57.035Z,57.65
2022-08-19T04:39:42.574Z,57.66
2022-08-19T04:42:30.894Z,57.14
2022-08-19T04:45:17.435Z,57.07
2022-08-19T04:48:26.533Z,57.36
2022-08-19T04:51:11.422Z,57.42
2022-08-19T04:53:56.455Z,57.56
2022-08-19T04:56:41.930Z,57.10
2022-08-19T04:59:26.976Z,56.79
2022-08-19T05:02:12.346Z,56.79
2022-08-19T05:04:59.655Z,56.91
2022-08-19T05:07:44.989Z,56.78
2022-08-19T05:10:30.141Z,56.87
2022-08-19T05:13:17.544Z,56.84
2022-08-19T05:16:03.168Z,56.85
2022-08-19T05:18:49.357Z,56.54
2022-08-19T05:21:36.321Z,56.61
2022-08-19T05:24:24.142Z,56.53
2022-08-19T05:27:09.440Z,56.60
2022-08-19T05:29:54.589Z,56.26
2022-08-19T05:32:41.122Z,56.37
2022-08-19T05:35:26.603Z,56.49
2022-08-19T05:38:11.933Z,56.40
2022-08-19T05:40:58.438Z,56.82
2022-08-19T05:43:43.889Z,56.68
2022-08-19T05:46:29.900Z,57.11
2022-08-19T05:49:16.830Z,57.07
2022-08-19T05:52:08.139Z,57.15
2022-08-19T05:54:54.645Z,56.83
2022-08-19T05:57:40.492Z,56.93
2022-08-19T06:00:25.737Z,57.37
2022-08-19T06:03:11.737Z,57.13
2022-08-19T06:05:58.594Z,57.40
2022-08-19T06:08:44.325Z,57.27
2022-08-19T06:11:38.265Z,59.19
2022-08-19T06:14:27.984Z,58.41
2022-08-19T06:17:13.420Z,58.36
2022-08-19T06:19:59.812Z,58.39
2022-08-19T06:22:47.823Z,58.87
2022-08-19T06:25:33.130Z,58.83
2022-08-19T06:28:19.047Z,58.19
2022-08-19T06:31:08.047Z,58.94
2022-08-19T06:33:53.872Z,58.41
2022-08-19T06:36:42.921Z,58.66
2022-08-19T06:39:33.173Z,58.61
2022-08-19T06:42:18.161Z,58.35
2022-08-19T06:45:04.040Z,58.65
2022-08-19T06:47:55.191Z,59.35
2022-08-19T06:50:41.099Z,58.86
2022-08-19T06:53:26.516Z,59.00
2022-08-19T06:56:17.433Z,59.05
2022-08-19T06:59:06.639Z,58.75
2022-08-19T07:01:54.662Z,58.94
2022-08-19T07:04:42.185Z,58.82
2022-08-19T07:07:27.991Z,58.89
2022-08-19T07:10:13.471Z,59.31
2022-08-19T07:12:58.578Z,59.31
2022-08-19T07:15:44.200Z,59.68
2022-08-19T07:18:29.420Z,59.83
2022-08-19T07:21:32.888Z,61.00
2022-08-19T07:24:25.322Z,60.46
2022-08-19T07:27:15.399Z,60.45
2022-08-19T07:30:01.208Z,60.35
2022-08-19T07:32:46.457Z,60.59
2022-08-19T07:35:35.487Z,60.15
2022-08-19T07:38:21.381Z,59.63
2022-08-19T07:41:07.460Z,59.49
2022-08-19T07:43:53.007Z,59.20
2022-08-19T07:46:41.640Z,59.00
2022-08-19T07:49:27.099Z,59.36
2022-08-19T07:52:12.361Z,59.25
2022-08-19T07:54:57.800Z,59.13
2022-08-19T08:00:50.232Z,58.43
2022-08-19T08:03:37.178Z,58.52
2022-08-19T08:06:23.264Z,58.43
2022-08-19T08:09:09.132Z,58.40
2022-08-19T08:12:05.052Z,58.46
2022-08-19T08:14:56.994Z,58.37
2022-08-19T08:17:49.733Z,58.31
2022-08-19T08:20:36.932Z,58.61
2022-08-19T08:23:23.252Z,58.64
2022-08-19T08:26:08.420Z,59.20
2022-08-19T08:28:54.783Z,59.18
2022-08-19T08:31:44.553Z,59.72
2022-08-19T08:34:29.556Z,59.39
2022-08-19T08:37:16.224Z,59.15
2022-08-19T08:40:27.566Z,59.92
2022-08-19T08:43:36.065Z,62.05
2022-08-19T08:46:35.018Z,60.79
2022-08-19T08:49:41.814Z,60.83
2022-08-19T08:52:34.056Z,60.77
2022-08-19T08:55:22.888Z,60.63
2022-08-19T08:58:17.375Z,61.18
2022-08-19T09:01:03.244Z,60.48
2022-08-19T09:03:48.689Z,60.70
2022-08-19T09:06:52.933Z,62.21
2022-08-19T09:09:50.799Z,61.54
2022-08-19T09:12:59.145Z,61.88
2022-08-19T09:15:50.172Z,61.42
2022-08-19T09:18:43.831Z,62.07
2022-08-19T09:21:33.082Z,60.95
2022-08-19T09:24:18.691Z,60.61
2022-08-19T09:27:08.314Z,60.43
2022-08-19T09:30:05.543Z,60.45
2022-08-19T09:32:53.105Z,60.41
2022-08-19T09:35:49.980Z,60.38
2022-08-19T09:38:43.512Z,61.64
2022-08-19T09:41:29.848Z,60.82
2022-08-19T09:44:14.875Z,60.79
2022-08-19T09:47:00.229Z,60.68
2022-08-19T09:49:45.463Z,60.37
2022-08-19T09:52:32.632Z,59.54
2022-08-19T09:55:18.340Z,60.08
2022-08-19T09:58:03.703Z,59.99
2022-08-19T10:00:51.485Z,60.02
2022-08-19T10:03:37.915Z,59.24
2022-08-19T10:06:38.221Z,58.95
2022-08-19T10:09:34.339Z,58.76
2022-08-19T10:12:20.161Z,58.76
2022-08-19T10:15:07.109Z,58.16
2022-08-19T10:17:55.218Z,57.75
2022-08-19T10:20:40.636Z,57.27
2022-08-19T10:23:26.066Z,57.13
2022-08-19T10:26:12.605Z,56.95
2022-08-19T10:28:58.471Z,57.04
2022-08-19T10:32:01.471Z,56.71
2022-08-19T10:34:49.197Z,56.76
2022-08-19T10:37:35.652Z,57.41
2022-08-19T10:40:21.358Z,57.25
2022-08-19T10:43:06.694Z,56.91
2022-08-19T10:45:55.799Z,55.67
2022-08-19T10:48:43.017Z,55.56
2022-08-19T10:51:28.922Z,54.57
2022-08-19T10:54:14.382Z,53.85
2022-08-19T10:56:59.603Z,53.78
2022-08-19T10:59:45.348Z,53.53
2022-08-19T11:02:30.588Z,53.66
2022-08-19T11:05:16.306Z,54.03
2022-08-19T11:08:01.624Z,54.27
2022-08-19T11:10:54.317Z,54.34
2022-08-19T11:13:41.890Z,53.75
2022-08-19T11:16:27.870Z,53.42
2022-08-19T11:19:13.438Z,53.39
2022-08-19T11:22:00.156Z,53.29
2022-08-19T11:24:45.724Z,53.39
2022-08-19T11:27:31.356Z,52.61
2022-08-19T11:30:16.761Z,52.32
2022-08-19T11:33:02.113Z,52.06
2022-08-19T11:35:47.678Z,52.27
2022-08-19T11:38:33.203Z,51.84
2022-08-19T11:41:21.360Z,50.93
2022-08-19T11:44:07.523Z,51.03
2022-08-19T11:46:52.991Z,51.08
2022-08-19T11:49:38.210Z,50.59
2022-08-19T11:52:23.790Z,50.78
2022-08-19T11:55:09.649Z,50.79
2022-08-19T11:57:55.152Z,51.14
2022-08-19T12:00:42.408Z,50.81
2022-08-19T12:03:28.661Z,50.58
2022-08-19T12:06:17.093Z,50.26
2022-08-19T12:09:07.013Z,49.93
2022-08-19T12:11:52.531Z,49.60
2022-08-19T12:14:38.066Z,49.66
2022-08-19T12:17:27.730Z,49.79
2022-08-19T12:20:14.392Z,50.39
2022-08-19T12:22:59.806Z,50.97
2022-08-19T12:25:47.654Z,51.15
2022-08-19T12:28:33.346Z,50.94
2022-08-19T12:31:18.709Z,50.98
2022-08-19T12:34:04.070Z,51.30
2022-08-19T12:36:49.604Z,51.13
2022-08-19T12:39:37.114Z,50.85
2022-08-19T12:42:22.544Z,51.54
2022-08-19T12:45:08.750Z,51.70
2022-08-19T12:47:54.928Z,51.68
2022-08-19T12:50:42.458Z,53.07
2022-08-19T12:53:27.663Z,53.29
2022-08-19T12:56:14.465Z,54.42
2022-08-19T12:59:02.898Z,55.46
2022-08-19T13:01:48.571Z,56.26
2022-08-19T13:04:35.259Z,56.21
2022-08-19T13:07:20.582Z,57.20
2022-08-19T13:10:10.254Z,56.80
2022-08-19T13:12:55.929Z,57.13
2022-08-19T13:15:42.736Z,57.47
2022-08-19T13:18:28.068Z,56.82
2022-08-19T13:21:13.652Z,57.40
2022-08-19T13:23:58.977Z,56.55
2022-08-19T13:26:44.406Z,55.82
2022-08-19T13:29:29.655Z,55.73
2022-08-19T13:32:18.683Z,55.25
2022-08-19T13:35:05.215Z,55.14
2022-08-19T13:37:50.404Z,54.40
2022-08-19T13:40:36.206Z,53.83
2022-08-19T13:43:27.340Z,53.38
2022-08-19T13:46:13.365Z,53.79
2022-08-19T13:48:58.756Z,53.45
2022-08-19T13:51:44.639Z,53.19
2022-08-19T13:54:30.071Z,52.65
2022-08-19T13:57:15.560Z,52.13
2022-08-19T14:00:01.518Z,51.50
2022-08-19T14:02:48.553Z,51.40
2022-08-19T14:05:34.653Z,51.18
2022-08-19T14:08:20.068Z,51.36
2022-08-19T14:11:06.509Z,50.57
2022-08-19T14:13:51.930Z,50.39
2022-08-19T14:16:36.988Z,50.13
2022-08-19T14:19:22.256Z,48.79
2022-08-19T14:22:08.813Z,48.51
2022-08-19T14:24:55.912Z,48.62
2022-08-19T14:27:42.404Z,49.29
2022-08-19T14:30:30.867Z,49.80
2022-08-19T14:33:16.012Z,49.74
2022-08-19T14:36:01.678Z,49.50
2022-08-19T14:38:46.773Z,49.76
2022-08-19T14:41:32.347Z,50.43
2022-08-19T14:44:17.743Z,50.50
2022-08-19T14:47:04.061Z,50.92
2022-08-19T14:49:49.481Z,51.26
2022-08-19T14:52:35.324Z,51.50
2022-08-19T14:55:20.537Z,51.85
2022-08-19T14:58:05.912Z,51.38
2022-08-19T15:00:54.387Z,50.17
2022-08-19T15:03:40.360Z,50.13
2022-08-19T15:06:25.809Z,49.89
2022-08-19T15:09:11.684Z,49.20
2022-08-19T15:11:56.686Z,49.29
2022-08-19T15:14:42.434Z,49.03
2022-08-19T15:17:32.343Z,48.90
2022-08-19T15:20:31.474Z,49.00
2022-08-19T15:23:18.669Z,49.43
2022-08-19T15:26:03.998Z,49.19
2022-08-19T15:28:49.371Z,48.69
2022-08-19T15:31:34.716Z,49.01
2022-08-19T15:34:22.640Z,48.49
2022-08-19T15:37:07.692Z,48.77
2022-08-19T15:39:52.997Z,49.37
2022-08-19T15:42:38.951Z,49.89
2022-08-19T15:45:23.989Z,49.86
2022-08-19T15:48:09.118Z,50.24
2022-08-19T15:50:54.824Z,50.65
2022-08-19T15:53:41.048Z,51.11
2022-08-19T15:56:27.520Z,50.92
2022-08-19T15:59:12.968Z,51.24
2022-08-19T16:01:58.329Z,50.79
2022-08-19T16:04:43.568Z,50.33
2022-08-19T16:07:29.503Z,50.40
2022-08-19T16:10:27.089Z,50.58
2022-08-19T16:13:13.029Z,50.25
2022-08-19T16:15:58.495Z,49.97
2022-08-19T16:18:43.876Z,50.38
2022-08-19T16:21:30.220Z,50.76
2022-08-19T16:24:18.047Z,50.25
2022-08-19T16:27:03.455Z,49.71
2022-08-19T16:29:48.756Z,49.09
2022-08-19T16:32:34.476Z,48.68
2022-08-19T16:35:19.771Z,48.86
2022-08-19T16:38:05.512Z,48.73
2022-08-19T16:40:51.663Z,49.40
2022-08-19T16:43:36.879Z,49.94
2022-08-19T16:46:23.447Z,49.59
2022-08-19T16:49:12.158Z,49.35
2022-08-19T16:51:57.737Z,49.39
2022-08-19T16:54:43.439Z,49.37
2022-08-19T16:57:28.923Z,49.61
2022-08-19T17:00:14.722Z,50.45
2022-08-19T17:03:14.782Z,50.83
2022-08-19T17:06:01.280Z,50.96
2022-08-19T17:08:48.821Z,51.54
2022-08-19T17:11:35.545Z,51.70
2022-08-19T17:14:20.672Z,51.67
2022-08-19T17:17:05.969Z,52.08
2022-08-19T17:19:51.501Z,52.52
2022-08-19T17:22:36.558Z,52.86
2022-08-19T17:25:21.834Z,53.16
2022-08-19T17:28:13.134Z,53.52
2022-08-19T17:30:58.685Z,53.49
2022-08-19T17:33:48.480Z,53.80
2022-08-19T17:36:33.968Z,53.61
2022-08-19T17:39:19.375Z,53.83
2022-08-19T17:42:04.992Z,53.48
2022-08-19T17:44:32.534Z,53.99
2022-08-19T17:46:59.202Z,54.25
2022-08-19T17:49:25.764Z,54.03
2022-08-19T17:51:52.333Z,54.44
2022-08-19T17:54:19.871Z,54.63
2022-08-19T17:56:47.111Z,54.50
2022-08-19T17:59:14.775Z,54.89
2022-08-19T18:01:52.458Z,54.85
2022-08-19T18:04:22.336Z,55.34
2022-08-19T18:06:53.248Z,55.43
2022-08-19T18:09:26.497Z,55.50
2022-08-19T18:11:55.035Z,55.35
2022-08-19T18:14:25.598Z,55.81
2022-08-19T18:16:58.412Z,55.56
2022-08-19T18:19:25.844Z,56.19
2022-08-19T18:21:58.114Z,56.57
2022-08-19T18:24:25.569Z,56.62
2022-08-19T18:26:52.117Z,56.89
2022-08-19T18:29:18.700Z,57.30
2022-08-19T18:31:45.304Z,57.31
2022-08-19T18:34:11.919Z,57.30
2022-08-19T18:36:53.335Z,57.93
2022-08-19T18:39:20.301Z,57.69
2022-08-19T18:41:47.473Z,57.83
2022-08-19T18:44:14.154Z,58.35
2022-08-19T18:46:40.761Z,58.25
2022-08-19T18:49:09.756Z,58.28
2022-08-19T18:51:36.411Z,58.67
2022-08-19T18:54:03.601Z,58.61
2022-08-19T18:56:31.231Z,58.37
2022-08-19T18:59:01.620Z,59.53
2022-08-19T19:01:36.536Z,59.52
2022-08-19T19:04:06.879Z,59.05
2022-08-19T19:06:35.470Z,59.02
2022-08-19T19:09:02.317Z,59.38
2022-08-19T19:11:32.064Z,59.43
2022-08-19T19:13:59.449Z,59.25
2022-08-19T19:16:26.083Z,59.38
2022-08-19T19:18:52.699Z,58.95
2022-08-19T19:21:20.814Z,58.93
2022-08-19T19:23:47.256Z,60.41
2022-08-19T19:26:13.956Z,59.25
2022-08-19T19:28:42.365Z,58.86
2022-08-19T19:31:25.037Z,59.02
2022-08-19T19:33:51.610Z,58.94
2022-08-19T19:36:18.659Z,59.14
2022-08-19T19:38:48.516Z,58.84
2022-08-19T19:41:17.971Z,59.14
2022-08-19T19:43:44.781Z,58.96
2022-08-19T19:46:11.308Z,59.55
2022-08-19T19:48:37.846Z,59.19
2022-08-19T19:51:04.824Z,59.00
2022-08-19T19:53:31.438Z,59.22
2022-08-19T19:55:58.116Z,59.62
2022-08-19T19:58:28.661Z,59.73
2022-08-19T20:00:56.659Z,59.67
2022-08-19T20:03:23.316Z,59.79
2022-08-19T20:05:50.007Z,60.42
2022-08-19T20:08:17.459Z,60.34
2022-08-19T20:10:45.560Z,60.13
2022-08-19T20:13:12.675Z,60.35
2022-08-19T20:15:42.572Z,60.93
2022-08-19T20:18:10.839Z,60.52
2022-08-19T20:20:37.911Z,60.74
2022-08-19T20:23:04.596Z,60.70
2022-08-19T20:25:31.313Z,61.10
2022-08-19T20:27:58.208Z,61.17
2022-08-19T20:30:24.975Z,61.53
2022-08-19T20:32:51.754Z,61.50
2022-08-19T20:35:21.373Z,61.39
2022-08-19T20:37:49.154Z,61.69
2022-08-19T20:40:20.071Z,61.71
2022-08-19T20:42:49.159Z,61.14
2022-08-19T20:45:22.621Z,61.28
2022-08-19T20:47:59.214Z,61.27
2022-08-19T20:50:25.864Z,61.12
2022-08-19T20:52:53.782Z,61.25
2022-08-19T20:55:20.543Z,61.03
2022-08-19T20:57:47.148Z,60.97
2022-08-19T21:00:14.101Z,61.16
2022-08-19T21:02:40.652Z,61.41
2022-08-19T21:05:07.504Z,61.35
2022-08-19T21:07:39.515Z,61.06
2022-08-19T21:10:06.998Z,61.38
2022-08-19T21:12:33.614Z,61.20
2022-08-19T21:15:00.352Z,60.87
2022-08-19T21:17:26.991Z,60.77
2022-08-19T21:19:53.608Z,61.04
2022-08-19T21:22:20.275Z,61.26
2022-08-19T21:24:46.862Z,61.14
2022-08-19T21:27:13.808Z,61.31
2022-08-19T21:29:40.510Z,61.17
2022-08-19T21:32:07.245Z,60.82
2022-08-19T21:34:34.136Z,60.88
2022-08-19T21:37:00.697Z,61.06
2022-08-19T21:39:27.336Z,60.88
2022-08-19T21:41:54.440Z,60.74
2022-08-19T21:44:21.307Z,60.67
2022-08-19T21:46:50.512Z,60.63
2022-08-19T21:49:17.568Z,60.79
2022-08-19T21:51:44.190Z,61.00
2022-08-19T21:54:14.089Z,61.02
2022-08-19T21:56:41.160Z,61.24
2022-08-19T21:59:08.233Z,60.91
2022-08-19T22:01:35.039Z,61.70
2022-08-19T22:04:01.697Z,61.73
2022-08-19T22:06:28.249Z,61.62
2022-08-19T22:08:54.881Z,62.24
2022-08-19T22:11:26.414Z,63.07
2022-08-19T22:13:53.855Z,62.40
2022-08-19T22:16:21.057Z,63.21
2022-08-19T22:18:48.361Z,63.76
2022-08-19T22:21:15.173Z,64.42
2022-08-19T22:23:48.016Z,64.68
2022-08-19T22:26:16.069Z,65.15
2022-08-19T22:28:43.217Z,66.00
2022-08-19T22:31:10.627Z,66.19
2022-08-19T22:33:38.067Z,66.58
2022-08-19T22:36:06.107Z,67.52
2022-08-19T22:38:32.983Z,67.19
2022-08-19T22:40:59.535Z,67.65
2022-08-19T22:43:29.315Z,68.45
2022-08-19T22:45:56.785Z,68.78
2022-08-19T22:48:28.867Z,69.20
2022-08-19T22:50:56.441Z,69.27
2022-08-19T22:53:22.954Z,69.58
2022-08-19T22:55:49.767Z,69.93
2022-08-19T22:58:16.301Z,69.93
2022-08-19T23:00:54.720Z,69.91
2022-08-19T23:03:21.664Z,70.28
2022-08-19T23:05:48.272Z,70.58
2022-08-19T23:08:19.776Z,71.17
2022-08-19T23:10:46.324Z,71.64
2022-08-19T23:13:12.966Z,71.54
2022-08-19T23:15:39.492Z,71.63
2022-08-19T23:18:06.123Z,71.94
2022-08-19T23:20:36.867Z,71.59
2022-08-19T23:23:06.601Z,71.15
2022-08-19T23:25:35.498Z,70.96
2022-08-19T23:28:02.983Z,71.72
2022-08-19T23:30:30.584Z,71.54
2022-08-19T23:33:01.629Z,71.15
2022-08-19T23:35:33.816Z,71.20
2022-08-19T23:38:00.692Z,71.00
2022-08-19T23:40:28.010Z,70.79
2022-08-19T23:42:54.823Z,70.94
2022-08-19T23:45:24.531Z,71.24
2022-08-19T23:47:53.420Z,71.23
2022-08-19T23:50:21.326Z,71.64
2022-08-19T23:52:57.068Z,71.87
2022-08-19T23:55:27.143Z,71.68
2022-08-19T23:57:54.191Z,71.84
